Time;durP1;ratioP1;P1;durP2;ratioP2;P2;SDS_P1;SDS_P2;PMS_P1;PMS_P2;Temp;Humidity;BMP_temperature;BMP_pressure;BME280_temperature;BME280_humidity;BME280_pressure;Samples;Min_cycle;Max_cycle;Signal;HPM_P1;HPM_P2
2022/10/28 00:01:14;;;;;;;;;;;15.10;99.90;;;;;;5113410;28;1154;-67
2022/10/28 00:03:42;;;;;;;;;;;15.10;99.90;;;;;;5113432;28;1116;-67
2022/10/28 00:06:10;;;;;;;;;;;15.00;99.90;;;;;;5092624;28;2081;-68
2022/10/28 00:08:36;;;;;;;;;;;15.00;99.90;;;;;;5095194;28;1191;-67
2022/10/28 00:11:03;;;;;;;;;;;15.00;99.90;;;;;;5113542;28;1084;-67
2022/10/28 00:13:29;;;;;;;;;;;15.10;99.90;;;;;;5112329;28;1137;-67
2022/10/28 00:15:55;;;;;;;;;;;15.00;99.90;;;;;;5113013;28;1163;-67
2022/10/28 00:18:20;;;;;;;;;;;15.00;99.90;;;;;;5112638;28;1128;-67
2022/10/28 00:20:46;;;;;;;;;;;15.00;99.90;;;;;;5112978;28;1069;-67
2022/10/28 00:23:11;;;;;;;;;;;15.00;99.90;;;;;;5113014;27;1146;-67
2022/10/28 00:25:37;;;;;;;;;;;15.00;99.90;;;;;;5112103;28;1972;-67
2022/10/28 00:28:03;;;;;;;;;;;14.90;99.90;;;;;;5112817;28;1124;-67
2022/10/28 00:30:28;;;;;;;;;;;14.80;99.90;;;;;;5112745;28;1105;-67
2022/10/28 00:32:54;;;;;;;;;;;14.70;99.90;;;;;;5112146;28;1166;-67
2022/10/28 00:35:20;;;;;;;;;;;14.60;99.90;;;;;;5112585;28;1294;-68
2022/10/28 00:37:45;;;;;;;;;;;14.60;99.90;;;;;;5106741;28;1175;-68
2022/10/28 00:40:11;;;;;;;;;;;14.70;99.90;;;;;;5111686;28;1333;-67
2022/10/28 00:42:36;;;;;;;;;;;14.60;99.90;;;;;;5112449;28;1120;-67
2022/10/28 00:45:03;;;;;;;;;;;14.60;99.90;;;;;;5112767;28;1160;-68
2022/10/28 00:47:32;;;;;;;;;;;14.70;99.90;;;;;;5110773;28;1910;-68
2022/10/28 00:50:02;;;;;;;;;;;14.60;99.90;;;;;;5110433;28;1255;-68
2022/10/28 00:52:28;;;;;;;;;;;14.70;99.90;;;;;;5092961;28;1149;-68
2022/10/28 00:54:55;;;;;;;;;;;14.70;99.90;;;;;;5110357;28;966;-68
2022/10/28 00:57:23;;;;;;;;;;;14.70;99.90;;;;;;5110089;28;1234;-68
2022/10/28 00:59:50;;;;;;;;;;;14.80;99.90;;;;;;5111097;28;1182;-68
2022/10/28 01:02:16;;;;;;;;;;;14.70;99.90;;;;;;5110201;28;1080;-68
2022/10/28 01:04:42;;;;;;;;;;;14.80;99.90;;;;;;5110372;28;1036;-68
2022/10/28 01:07:08;;;;;;;;;;;14.70;99.90;;;;;;5107965;28;1999;-67
2022/10/28 01:09:34;;;;;;;;;;;14.70;99.90;;;;;;5110246;28;1092;-68
2022/10/28 01:12:22;;;;;;;;;;;14.70;99.90;;;;;;5092223;28;1184;-67
2022/10/28 01:14:49;;;;;;;;;;;14.70;99.90;;;;;;5109577;28;1116;-67
2022/10/28 01:17:14;;;;;;;;;;;14.80;99.90;;;;;;5110755;28;1136;-67
2022/10/28 01:19:51;;;;;;;;;;;14.80;99.90;;;;;;5110094;28;1120;-67
2022/10/28 01:22:20;;;;;;;;;;;14.70;99.90;;;;;;5109527;28;1116;-67
2022/10/28 01:24:46;;;;;;;;;;;14.70;99.90;;;;;;5110089;28;1241;-67
2022/10/28 01:27:30;;;;;;;;;;;14.70;99.90;;;;;;5110034;28;1938;-67
2022/10/28 01:29:56;;;;;;;;;;;14.70;99.90;;;;;;5087946;28;1163;-67
2022/10/28 01:32:22;;;;;;;;;;;14.70;99.90;;;;;;5105095;28;1136;-68
2022/10/28 01:34:55;;;;;;;;;;;14.70;99.90;;;;;;5109924;28;1155;-67
2022/10/28 01:37:33;;;;;;;;;;;14.70;99.90;;;;;;5109351;28;1591;-67
2022/10/28 01:40:08;;;;;;;;;;;14.70;99.90;;;;;;5110202;28;1378;-67
2022/10/28 01:42:34;;;;;;;;;;;14.80;99.90;;;;;;5109509;28;1104;-67
2022/10/28 01:45:03;;;;;;;;;;;14.80;99.90;;;;;;5109445;28;1187;-67
2022/10/28 01:47:34;;;;;;;;;;;14.90;99.90;;;;;;5109636;28;1918;-67
2022/10/28 01:50:03;;;;;;;;;;;14.90;99.90;;;;;;5108539;28;1215;-67
2022/10/28 01:52:30;;;;;;;;;;;14.90;99.90;;;;;;5109981;28;1148;-68
2022/10/28 01:55:00;;;;;;;;;;;14.80;99.90;;;;;;5109994;28;1263;-67
2022/10/28 01:57:26;;;;;;;;;;;14.80;99.90;;;;;;5108721;28;1318;-67
2022/10/28 01:59:52;;;;;;;;;;;14.80;99.90;;;;;;5109443;28;1169;-68
2022/10/28 02:02:18;;;;;;;;;;;14.80;99.90;;;;;;5110145;28;1096;-67
2022/10/28 02:04:43;;;;;;;;;;;14.70;99.90;;;;;;5090343;28;1144;-67
2022/10/28 02:07:09;;;;;;;;;;;14.80;99.90;;;;;;5089400;28;1913;-67
2022/10/28 02:09:35;;;;;;;;;;;14.70;99.90;;;;;;5095004;28;1154;-68
2022/10/28 02:12:08;;;;;;;;;;;14.60;99.90;;;;;;5107202;28;1274;-68
2022/10/28 02:14:47;;;;;;;;;;;14.60;99.90;;;;;;5109625;28;1104;-67
2022/10/28 02:17:18;;;;;;;;;;;14.60;99.90;;;;;;5109180;28;1132;-67
2022/10/28 02:19:52;;;;;;;;;;;14.50;99.90;;;;;;5108690;28;1186;-67
2022/10/28 02:22:20;;;;;;;;;;;14.50;99.90;;;;;;5109416;28;1084;-67
2022/10/28 02:24:51;;;;;;;;;;;14.50;99.90;;;;;;5109342;28;1136;-67
2022/10/28 02:27:24;;;;;;;;;;;14.50;99.90;;;;;;5108908;28;1969;-67
2022/10/28 02:29:54;;;;;;;;;;;14.50;99.90;;;;;;5109551;28;1120;-67
2022/10/28 02:32:22;;;;;;;;;;;14.60;99.90;;;;;;5108329;28;1155;-68
2022/10/28 02:34:49;;;;;;;;;;;14.50;99.90;;;;;;5107168;28;1163;-67
2022/10/28 02:37:19;;;;;;;;;;;14.50;99.90;;;;;;5109072;28;1333;-67
2022/10/28 02:39:47;;;;;;;;;;;14.60;99.90;;;;;;5090494;28;1382;-67
2022/10/28 02:42:20;;;;;;;;;;;14.50;99.90;;;;;;5090563;28;1167;-67
2022/10/28 02:44:48;;;;;;;;;;;14.50;99.90;;;;;;5111775;28;1289;-67
2022/10/28 02:47:17;;;;;;;;;;;14.50;99.90;;;;;;5112937;28;1976;-67
2022/10/28 02:49:44;;;;;;;;;;;14.40;99.90;;;;;;5112852;28;1123;-67
2022/10/28 02:52:10;;;;;;;;;;;14.40;99.90;;;;;;5112951;28;1112;-67
2022/10/28 02:54:39;;;;;;;;;;;14.40;99.90;;;;;;5112965;28;1219;-67
2022/10/28 02:57:07;;;;;;;;;;;14.40;99.90;;;;;;5095840;28;1290;-67
2022/10/28 02:59:33;;;;;;;;;;;14.30;99.90;;;;;;5113115;28;1142;-67
2022/10/28 03:01:59;;;;;;;;;;;14.30;99.90;;;;;;5112306;28;1169;-67
2022/10/28 03:04:24;;;;;;;;;;;14.30;99.90;;;;;;5112787;28;1207;-67
2022/10/28 03:06:50;;;;;;;;;;;14.30;99.90;;;;;;5111506;28;1973;-67
2022/10/28 03:09:15;;;;;;;;;;;14.30;99.90;;;;;;5111996;28;1131;-67
2022/10/28 03:11:41;;;;;;;;;;;14.20;99.90;;;;;;5112607;28;1171;-67
2022/10/28 03:14:07;;;;;;;;;;;14.20;99.90;;;;;;5095720;28;1119;-67
2022/10/28 03:16:32;;;;;;;;;;;14.20;99.90;;;;;;5113220;28;1080;-67
2022/10/28 03:18:58;;;;;;;;;;;14.20;99.90;;;;;;5111918;28;1179;-67
2022/10/28 03:21:24;;;;;;;;;;;14.10;99.90;;;;;;5112217;28;1124;-67
2022/10/28 03:23:49;;;;;;;;;;;14.10;99.90;;;;;;5112842;28;1140;-67
2022/10/28 03:26:15;;;;;;;;;;;14.10;99.90;;;;;;5112571;28;1913;-67
2022/10/28 03:28:40;;;;;;;;;;;14.10;99.90;;;;;;5111288;28;1184;-67
2022/10/28 03:31:06;;;;;;;;;;;14.00;99.90;;;;;;5094258;28;1104;-67
2022/10/28 03:33:32;;;;;;;;;;;14.00;99.90;;;;;;5112293;28;989;-67
2022/10/28 03:35:57;;;;;;;;;;;14.00;99.90;;;;;;5096133;27;1347;-67
2022/10/28 03:38:23;;;;;;;;;;;14.00;99.90;;;;;;5112593;28;1040;-67
2022/10/28 03:40:49;;;;;;;;;;;14.00;99.90;;;;;;5102710;28;1444;-67
2022/10/28 03:43:15;;;;;;;;;;;13.90;99.90;;;;;;5111763;28;1163;-67
2022/10/28 03:45:41;;;;;;;;;;;13.80;99.90;;;;;;5093982;28;1949;-67
2022/10/28 03:48:06;;;;;;;;;;;13.80;99.90;;;;;;5111954;28;1171;-67
2022/10/28 03:50:32;;;;;;;;;;;13.70;99.90;;;;;;5104466;28;1314;-68
2022/10/28 03:52:58;;;;;;;;;;;13.80;99.90;;;;;;5104186;28;1077;-67
2022/10/28 03:55:24;;;;;;;;;;;13.70;99.90;;;;;;5110155;28;1106;-67
2022/10/28 03:57:50;;;;;;;;;;;13.70;99.90;;;;;;5110307;28;1337;-67
2022/10/28 04:00:16;;;;;;;;;;;13.70;99.90;;;;;;5111145;28;1197;-68
2022/10/28 04:02:42;;;;;;;;;;;13.80;99.90;;;;;;5110325;28;1141;-67
2022/10/28 04:05:08;;;;;;;;;;;13.80;99.90;;;;;;5091674;28;1109;-67
2022/10/28 04:07:34;;;;;;;;;;;13.70;99.90;;;;;;5107650;28;1901;-67
2022/10/28 04:09:59;;;;;;;;;;;13.70;99.90;;;;;;5110519;28;1025;-67
2022/10/28 04:12:25;;;;;;;;;;;13.70;99.90;;;;;;5109848;28;1136;-68
2022/10/28 04:14:52;;;;;;;;;;;13.70;99.90;;;;;;5110901;28;1072;-67
2022/10/28 04:17:17;;;;;;;;;;;13.70;99.90;;;;;;5110383;28;1092;-67
2022/10/28 04:19:43;;;;;;;;;;;13.70;99.90;;;;;;5109926;28;1032;-67
2022/10/28 04:22:09;;;;;;;;;;;13.70;99.90;;;;;;5110460;28;1130;-67
2022/10/28 04:24:34;;;;;;;;;;;13.60;99.90;;;;;;5109655;28;1183;-67
2022/10/28 04:27:00;;;;;;;;;;;13.60;99.90;;;;;;5110524;28;1913;-67
2022/10/28 04:29:26;;;;;;;;;;;13.60;99.90;;;;;;5110254;28;1144;-67
2022/10/28 04:31:51;;;;;;;;;;;13.60;99.90;;;;;;5109110;28;1175;-67
2022/10/28 04:34:17;;;;;;;;;;;13.60;99.90;;;;;;5110331;28;1158;-67
2022/10/28 04:36:43;;;;;;;;;;;13.70;99.90;;;;;;5100568;28;1311;-67
2022/10/28 04:39:08;;;;;;;;;;;13.70;99.90;;;;;;5109220;28;1314;-67
2022/10/28 04:41:34;;;;;;;;;;;13.70;99.90;;;;;;5099158;28;1838;-67
2022/10/28 04:44:00;;;;;;;;;;;13.70;99.90;;;;;;5091847;28;1124;-67
2022/10/28 04:46:25;;;;;;;;;;;13.70;99.90;;;;;;5109652;28;1914;-67
2022/10/28 04:48:51;;;;;;;;;;;13.70;99.90;;;;;;5071655;28;1072157;-67
2022/10/28 04:51:17;;;;;;;;;;;13.60;99.90;;;;;;5111306;28;1108;-67
2022/10/28 04:53:42;;;;;;;;;;;13.70;99.90;;;;;;5110270;28;1262;-67
2022/10/28 04:56:08;;;;;;;;;;;13.70;99.90;;;;;;5110710;28;1236;-67
2022/10/28 04:58:35;;;;;;;;;;;13.70;99.90;;;;;;5110808;28;1286;-67
2022/10/28 05:01:08;;;;;;;;;;;13.70;99.90;;;;;;5110391;28;968;-67
2022/10/28 05:03:34;;;;;;;;;;;13.70;99.90;;;;;;5110662;28;1104;-67
2022/10/28 05:05:59;;;;;;;;;;;13.70;99.90;;;;;;5108081;28;1902;-67
2022/10/28 05:08:25;;;;;;;;;;;13.80;99.90;;;;;;5108556;28;1137;-67
2022/10/28 05:10:51;;;;;;;;;;;13.80;99.90;;;;;;5109964;28;1235;-67
2022/10/28 05:13:17;;;;;;;;;;;13.90;99.90;;;;;;5109865;28;1179;-68
2022/10/28 05:15:43;;;;;;;;;;;13.90;99.90;;;;;;5109488;28;1192;-67
2022/10/28 05:18:08;;;;;;;;;;;14.00;99.90;;;;;;5109902;28;1267;-67
2022/10/28 05:20:34;;;;;;;;;;;14.00;99.90;;;;;;5109611;28;1180;-67
2022/10/28 05:22:59;;;;;;;;;;;14.00;99.90;;;;;;5109180;28;1156;-67
2022/10/28 05:25:25;;;;;;;;;;;14.00;99.90;;;;;;5091433;28;2124;-67
2022/10/28 05:27:51;;;;;;;;;;;14.00;99.90;;;;;;5109052;28;2013;-67
2022/10/28 05:30:17;;;;;;;;;;;14.00;99.90;;;;;;5110018;28;1298;-67
2022/10/28 05:32:43;;;;;;;;;;;13.90;99.90;;;;;;5109300;28;1124;-67
2022/10/28 05:35:09;;;;;;;;;;;13.90;99.90;;;;;;5091035;28;1144;-67
2022/10/28 05:37:35;;;;;;;;;;;13.90;99.90;;;;;;5109667;28;1341;-67
2022/10/28 05:40:00;;;;;;;;;;;13.80;99.90;;;;;;5109658;28;1287;-67
2022/10/28 05:42:26;;;;;;;;;;;13.80;99.90;;;;;;5108730;28;1072;-67
2022/10/28 05:44:51;;;;;;;;;;;13.70;99.90;;;;;;5109800;28;1203;-67
2022/10/28 05:47:17;;;;;;;;;;;13.70;99.90;;;;;;5086139;28;1983;-67
2022/10/28 05:49:43;;;;;;;;;;;13.70;99.90;;;;;;5108372;28;1332;-67
2022/10/28 05:52:08;;;;;;;;;;;13.70;99.90;;;;;;5109873;28;1301;-67
2022/10/28 05:54:34;;;;;;;;;;;13.60;99.90;;;;;;5110014;28;1092;-67
2022/10/28 05:57:00;;;;;;;;;;;13.60;99.90;;;;;;5108581;28;1289;-67
2022/10/28 05:59:25;;;;;;;;;;;13.70;99.90;;;;;;5109300;28;1286;-67
2022/10/28 06:01:51;;;;;;;;;;;13.80;99.90;;;;;;5108705;28;1266;-68
2022/10/28 06:04:17;;;;;;;;;;;13.90;99.90;;;;;;5109054;28;1223;-67
2022/10/28 06:06:42;;;;;;;;;;;13.90;99.90;;;;;;5107018;28;1918;-68
2022/10/28 06:09:08;;;;;;;;;;;14.00;99.90;;;;;;5090778;28;1199;-67
2022/10/28 06:11:34;;;;;;;;;;;14.00;99.90;;;;;;5108648;28;1207;-67
2022/10/28 06:13:59;;;;;;;;;;;14.00;99.90;;;;;;5109152;28;1088;-68
2022/10/28 06:16:25;;;;;;;;;;;14.00;99.90;;;;;;5109151;28;1101;-67
2022/10/28 06:18:50;;;;;;;;;;;14.10;99.90;;;;;;5090632;28;1155;-67
2022/10/28 06:21:16;;;;;;;;;;;14.10;99.90;;;;;;5109659;28;1109;-68
2022/10/28 06:23:42;;;;;;;;;;;14.10;99.90;;;;;;5091006;28;1100;-68
2022/10/28 06:26:08;;;;;;;;;;;14.10;99.90;;;;;;5108252;28;1914;-68
2022/10/28 06:28:33;;;;;;;;;;;14.20;99.90;;;;;;5087876;28;1101;-68
2022/10/28 06:31:04;;;;;;;;;;;14.20;99.90;;;;;;5107470;28;1229;-68
2022/10/28 06:33:30;;;;;;;;;;;14.20;99.90;;;;;;5108926;28;1032;-68
2022/10/28 06:35:56;;;;;;;;;;;14.10;99.90;;;;;;5092705;28;1326;-68
2022/10/28 06:38:23;;;;;;;;;;;14.20;99.90;;;;;;5089033;28;1270;-68
2022/10/28 06:40:48;;;;;;;;;;;14.20;99.90;;;;;;5108131;28;1148;-68
2022/10/28 06:43:15;;;;;;;;;;;14.20;99.90;;;;;;5090047;28;1219;-68
2022/10/28 06:45:40;;;;;;;;;;;14.20;99.90;;;;;;5089068;28;1314;-68
2022/10/28 06:48:06;;;;;;;;;;;14.20;99.90;;;;;;5109112;28;1965;-68
2022/10/28 06:50:33;;;;;;;;;;;14.30;99.90;;;;;;5108486;28;1321;-68
2022/10/28 06:52:58;;;;;;;;;;;14.30;99.90;;;;;;5108081;28;1110;-67
2022/10/28 06:55:25;;;;;;;;;;;14.30;99.90;;;;;;5091372;28;1175;-68
2022/10/28 06:57:50;;;;;;;;;;;14.40;99.90;;;;;;5109057;28;1322;-68
2022/10/28 07:00:16;;;;;;;;;;;14.40;99.90;;;;;;5107581;28;1138;-68
2022/10/28 07:02:42;;;;;;;;;;;14.40;99.90;;;;;;5109111;28;1091;-68
2022/10/28 07:05:07;;;;;;;;;;;14.50;99.90;;;;;;5090715;28;1402;-68
2022/10/28 07:07:36;;;;;;;;;;;14.50;99.90;;;;;;5108094;28;1909;-67
2022/10/28 07:10:03;;;;;;;;;;;14.50;99.90;;;;;;5090304;28;1120;-67
2022/10/28 07:12:28;;;;;;;;;;;14.50;99.90;;;;;;5109287;28;1092;-68
2022/10/28 07:14:54;;;;;;;;;;;14.50;99.90;;;;;;5108111;28;1195;-68
2022/10/28 07:17:19;;;;;;;;;;;14.50;99.90;;;;;;5108619;28;1172;-68
2022/10/28 07:19:45;;;;;;;;;;;14.60;99.90;;;;;;5109011;28;1147;-68
2022/10/28 07:22:11;;;;;;;;;;;14.60;99.90;;;;;;5107716;28;1147;-68
2022/10/28 07:24:36;;;;;;;;;;;14.70;99.90;;;;;;5108542;28;1155;-68
2022/10/28 07:27:02;;;;;;;;;;;14.80;99.90;;;;;;5107642;28;1909;-68
2022/10/28 07:29:28;;;;;;;;;;;14.90;99.90;;;;;;5107858;28;1160;-68
2022/10/28 07:31:54;;;;;;;;;;;15.00;99.90;;;;;;5112347;28;1277;-68
2022/10/28 07:34:20;;;;;;;;;;;15.10;99.90;;;;;;5098290;28;1124;-68
2022/10/28 07:36:50;;;;;;;;;;;15.10;99.90;;;;;;5111750;28;1380;-68
2022/10/28 07:39:16;;;;;;;;;;;15.20;99.90;;;;;;5080879;28;1750;-68
2022/10/28 07:41:41;;;;;;;;;;;15.20;99.90;;;;;;5111398;28;1231;-68
2022/10/28 07:44:07;;;;;;;;;;;15.30;99.90;;;;;;5111865;28;1250;-68
2022/10/28 07:46:33;;;;;;;;;;;15.40;99.90;;;;;;5093889;28;1967;-67
2022/10/28 07:48:58;;;;;;;;;;;15.50;99.90;;;;;;5111229;28;1242;-68
2022/10/28 07:51:24;;;;;;;;;;;15.50;99.90;;;;;;5112106;28;1290;-67
2022/10/28 07:53:49;;;;;;;;;;;15.60;99.90;;;;;;5111923;27;1278;-67
2022/10/28 07:56:16;;;;;;;;;;;15.70;99.90;;;;;;5103386;28;3311;-67
2022/10/28 07:58:43;;;;;;;;;;;15.90;99.90;;;;;;5110106;28;3007;-67
2022/10/28 08:01:10;;;;;;;;;;;16.00;99.90;;;;;;5110266;28;3174;-68
2022/10/28 08:03:35;;;;;;;;;;;16.20;99.90;;;;;;5111511;28;1175;-68
2022/10/28 08:06:02;;;;;;;;;;;16.20;99.90;;;;;;5112163;28;1973;-68
2022/10/28 08:08:28;;;;;;;;;;;16.40;99.90;;;;;;5111399;28;1145;-67
2022/10/28 08:10:54;;;;;;;;;;;16.50;99.90;;;;;;5101771;28;1383;-68
2022/10/28 08:13:19;;;;;;;;;;;16.60;99.90;;;;;;5111572;28;1089;-67
2022/10/28 08:15:52;;;;;;;;;;;16.70;99.90;;;;;;5111395;28;1123;-68
2022/10/28 08:18:18;;;;;;;;;;;16.90;99.90;;;;;;5111079;28;1187;-68
2022/10/28 08:20:44;;;;;;;;;;;17.00;99.90;;;;;;5110954;28;1224;-68
2022/10/28 08:23:09;;;;;;;;;;;17.10;99.90;;;;;;5091609;28;1096;-68
2022/10/28 08:25:35;;;;;;;;;;;17.10;99.90;;;;;;5108225;28;1002;-68
2022/10/28 08:28:01;;;;;;;;;;;17.20;99.90;;;;;;5108016;28;1906;-68
2022/10/28 08:30:27;;;;;;;;;;;17.20;99.90;;;;;;5107462;28;1136;-68
2022/10/28 08:32:54;;;;;;;;;;;17.30;99.90;;;;;;5106870;28;969;-68
2022/10/28 08:35:20;;;;;;;;;;;17.40;99.90;;;;;;5106406;28;1310;-68
2022/10/28 08:37:51;;;;;;;;;;;17.50;99.90;;;;;;5105279;28;1180;-68
2022/10/28 08:40:19;;;;;;;;;;;17.60;99.90;;;;;;5106826;28;1401;-68
2022/10/28 08:42:48;;;;;;;;;;;17.70;99.90;;;;;;5106756;28;1096;-68
2022/10/28 08:45:17;;;;;;;;;;;17.70;99.90;;;;;;5101454;28;1151;-68
2022/10/28 08:47:43;;;;;;;;;;;17.80;99.90;;;;;;5106496;28;1997;-68
2022/10/28 08:50:11;;;;;;;;;;;17.80;99.90;;;;;;5108749;28;1319;-68
2022/10/28 08:52:40;;;;;;;;;;;17.80;99.90;;;;;;5089801;28;935;-68
2022/10/28 08:55:13;;;;;;;;;;;17.90;99.90;;;;;;5109852;28;1144;-68
2022/10/28 08:57:41;;;;;;;;;;;18.00;99.90;;;;;;5108596;28;1382;-68
2022/10/28 09:00:12;;;;;;;;;;;18.20;99.90;;;;;;5106230;28;1127;-68
2022/10/28 09:02:47;;;;;;;;;;;18.20;99.90;;;;;;5110613;28;1157;-68
2022/10/28 09:05:18;;;;;;;;;;;18.30;99.90;;;;;;5109732;28;1911;-68
2022/10/28 09:07:43;;;;;;;;;;;18.30;99.90;;;;;;5109449;28;1992;-68
2022/10/28 09:10:09;;;;;;;;;;;18.30;99.90;;;;;;5112193;28;1073;-68
2022/10/28 09:12:41;;;;;;;;;;;18.30;99.90;;;;;;5111366;28;1127;-68
2022/10/28 09:15:23;;;;;;;;;;;18.30;99.90;;;;;;5110882;28;1160;-68
2022/10/28 09:17:51;;;;;;;;;;;18.30;99.90;;;;;;5112164;28;1140;-68
2022/10/28 09:20:28;;;;;;;;;;;18.20;99.90;;;;;;5111631;28;1180;-68
2022/10/28 09:22:56;;;;;;;;;;;18.10;99.90;;;;;;5111512;28;1327;-68
2022/10/28 09:25:25;;;;;;;;;;;18.10;99.90;;;;;;5112122;28;1073;-68
2022/10/28 09:27:57;;;;;;;;;;;18.00;99.90;;;;;;5110589;28;1969;-65
2022/10/28 09:30:23;;;;;;;;;;;18.10;99.90;;;;;;5109947;28;1179;-69
2022/10/28 09:32:57;;;;;;;;;;;18.10;99.90;;;;;;5098326;28;1159;-69
2022/10/28 09:35:25;;;;;;;;;;;18.10;99.90;;;;;;5110691;28;1314;-69
2022/10/28 09:37:57;;;;;;;;;;;18.20;99.90;;;;;;5112060;28;1166;-69
2022/10/28 09:40:25;;;;;;;;;;;18.20;99.90;;;;;;5111018;28;1368;-69
2022/10/28 09:42:57;;;;;;;;;;;18.20;99.90;;;;;;5110438;28;1223;-69
2022/10/28 09:45:26;;;;;;;;;;;18.10;99.90;;;;;;5109575;28;1246;-69
2022/10/28 09:47:55;;;;;;;;;;;18.10;99.90;;;;;;5111052;27;1979;-70
2022/10/28 09:50:22;;;;;;;;;;;18.20;99.90;;;;;;5092793;28;1231;-69
2022/10/28 09:52:51;;;;;;;;;;;18.20;99.90;;;;;;5111075;28;1110;-68
2022/10/28 09:55:19;;;;;;;;;;;18.10;99.90;;;;;;5110725;28;1159;-68
2022/10/28 09:57:45;;;;;;;;;;;18.10;99.90;;;;;;5110448;28;1326;-68
2022/10/28 10:00:11;;;;;;;;;;;18.30;99.90;;;;;;5111117;28;1039;-68
2022/10/28 10:02:37;;;;;;;;;;;18.40;99.90;;;;;;5088533;28;1322;-68
2022/10/28 10:05:02;;;;;;;;;;;18.50;99.90;;;;;;5109559;28;1097;-68
2022/10/28 10:07:36;;;;;;;;;;;18.40;99.90;;;;;;5108883;28;1906;-68
2022/10/28 10:10:05;;;;;;;;;;;18.50;99.90;;;;;;5110584;28;1092;-68
2022/10/28 10:12:31;;;;;;;;;;;18.50;99.90;;;;;;5089311;28;3086;-68
2022/10/28 10:14:58;;;;;;;;;;;18.60;99.90;;;;;;5110777;28;1134;-68
2022/10/28 10:17:28;;;;;;;;;;;18.60;99.90;;;;;;5110375;28;1179;-68
2022/10/28 10:20:01;;;;;;;;;;;18.70;99.90;;;;;;5110696;28;1088;-68
2022/10/28 10:22:29;;;;;;;;;;;18.80;99.90;;;;;;5109382;28;1096;-68
2022/10/28 10:24:54;;;;;;;;;;;18.80;99.90;;;;;;5109737;28;1111;-68
2022/10/28 10:27:20;;;;;;;;;;;18.80;99.90;;;;;;5110069;28;1906;-68
2022/10/28 10:29:48;;;;;;;;;;;19.00;99.90;;;;;;5110344;28;1270;-68
2022/10/28 10:32:18;;;;;;;;;;;19.10;99.90;;;;;;5109276;28;1364;-68
2022/10/28 10:34:45;;;;;;;;;;;19.20;99.90;;;;;;5110477;28;1310;-68
2022/10/28 10:37:18;;;;;;;;;;;19.30;99.90;;;;;;5110256;28;1357;-67
2022/10/28 10:39:44;;;;;;;;;;;19.30;99.90;;;;;;5111051;28;1427;-67
2022/10/28 10:42:15;;;;;;;;;;;19.20;99.90;;;;;;5110082;28;1192;-67
2022/10/28 10:44:42;;;;;;;;;;;19.20;99.90;;;;;;5110366;28;1226;-67
2022/10/28 10:47:08;;;;;;;;;;;19.30;99.90;;;;;;5110975;28;1897;-67
2022/10/28 10:49:34;;;;;;;;;;;19.30;99.90;;;;;;5109970;28;1295;-67
2022/10/28 10:52:01;;;;;;;;;;;19.40;99.90;;;;;;5110127;28;1116;-68
2022/10/28 10:54:29;;;;;;;;;;;19.50;99.90;;;;;;5110981;28;1183;-68
2022/10/28 10:57:06;;;;;;;;;;;19.60;99.90;;;;;;5110415;28;1334;-68
2022/10/28 10:59:33;;;;;;;;;;;19.70;99.90;;;;;;5109684;28;1225;-68
2022/10/28 11:01:59;;;;;;;;;;;19.70;99.90;;;;;;5097439;28;1116;-68
2022/10/28 11:04:25;;;;;;;;;;;19.80;99.90;;;;;;5092238;28;1650;-67
2022/10/28 11:06:53;;;;;;;;;;;19.90;99.90;;;;;;5113876;28;1906;-68
2022/10/28 11:09:29;;;;;;;;;;;20.00;99.90;;;;;;5114360;28;1221;-68
2022/10/28 11:11:55;;;;;;;;;;;20.10;99.90;;;;;;5114194;28;1168;-68
2022/10/28 11:14:23;;;;;;;;;;;20.20;99.90;;;;;;5113714;28;1100;-68
2022/10/28 11:16:50;;;;;;;;;;;20.30;99.90;;;;;;5112650;28;1134;-68
2022/10/28 11:19:20;;;;;;;;;;;20.60;99.90;;;;;;5114251;28;1100;-68
2022/10/28 11:21:52;;;;;;;;;;;20.90;99.90;;;;;;5095542;28;1163;-68
2022/10/28 11:24:18;;;;;;;;;;;21.10;99.90;;;;;;5114254;28;1086;-68
2022/10/28 11:26:50;;;;;;;;;;;21.20;99.90;;;;;;5113079;28;1978;-68
2022/10/28 11:29:16;;;;;;;;;;;21.10;99.90;;;;;;5114196;28;1013;-68
2022/10/28 11:31:54;;;;;;;;;;;21.00;99.90;;;;;;5092698;28;1470;-68
2022/10/28 11:34:43;;;;;;;;;;;20.90;99.90;;;;;;5091180;28;1211;-68
2022/10/28 11:37:14;;;;;;;;;;;20.80;99.90;;;;;;5114112;28;1329;-68
2022/10/28 11:39:49;;;;;;;;;;;20.80;99.90;;;;;;5110834;28;2693;-68
2022/10/28 11:42:32;;;;;;;;;;;21.10;99.90;;;;;;5110923;28;3424;-68
2022/10/28 11:44:59;;;;;;;;;;;21.50;99.90;;;;;;5111178;28;3389;-68
2022/10/28 11:47:25;;;;;;;;;;;21.80;99.90;;;;;;5104330;28;3059;-68
2022/10/28 11:49:51;;;;;;;;;;;22.20;99.90;;;;;;5105649;28;1187;-69
2022/10/28 11:52:17;;;;;;;;;;;23.00;99.90;;;;;;5092412;28;1215;-68
2022/10/28 11:54:52;;;;;;;;;;;23.50;99.90;;;;;;5094642;28;1212;-68
2022/10/28 11:57:26;;;;;;;;;;;23.90;99.90;;;;;;5106753;27;1311;-68
2022/10/28 11:59:56;;;;;;;;;;;24.30;99.90;;;;;;5117313;27;2809;-69
2022/10/28 12:02:51;;;;;;;;;;;24.10;99.90;;;;;;5086114;28;1214;-70
2022/10/28 12:05:19;;;;;;;;;;;23.80;99.90;;;;;;5097329;28;1159;-70
2022/10/28 12:07:46;;;;;;;;;;;23.70;99.90;;;;;;5111422;28;1906;-69
2022/10/28 12:10:31;;;;;;;;;;;23.80;99.90;;;;;;5086311;28;1198;-69
2022/10/28 12:12:56;;;;;;;;;;;23.70;99.90;;;;;;5091696;28;1694;-69
2022/10/28 12:15:27;;;;;;;;;;;23.60;99.90;;;;;;5104545;28;1677;-69
2022/10/28 12:18:10;;;;;;;;;;;23.50;99.90;;;;;;5101343;28;3522;-69
2022/10/28 12:20:39;;;;;;;;;;;23.30;99.90;;;;;;5107932;28;3433;-69
2022/10/28 12:23:11;;;;;;;;;;;23.10;99.90;;;;;;5096308;28;3254;-69
2022/10/28 12:25:38;;;;;;;;;;;22.90;99.90;;;;;;5106573;28;1090;-69
2022/10/28 12:28:15;;;;;;;;;;;22.80;99.90;;;;;;5106298;28;1961;-69
2022/10/28 12:30:41;;;;;;;;;;;22.70;99.90;;;;;;5112182;28;1167;-69
2022/10/28 12:33:11;;;;;;;;;;;22.60;99.90;;;;;;5077059;28;1105;-69
2022/10/28 12:35:40;;;;;;;;;;;22.60;99.90;;;;;;5108817;28;3096;-69
2022/10/28 12:38:10;;;;;;;;;;;22.50;99.90;;;;;;5101453;28;1143;-68
2022/10/28 12:40:46;;;;;;;;;;;22.30;99.90;;;;;;5123105;27;1355;-68
2022/10/28 12:43:15;;;;;;;;;;;22.20;99.90;;;;;;5112985;28;1159;-68
2022/10/28 12:45:41;;;;;;;;;;;22.00;99.90;;;;;;5103786;28;1385;-68
2022/10/28 12:48:15;;;;;;;;;;;21.70;99.90;;;;;;5112389;28;1963;-68
2022/10/28 12:50:49;;;;;;;;;;;21.50;99.90;;;;;;5112410;28;1102;-68
2022/10/28 12:53:15;;;;;;;;;;;21.30;99.90;;;;;;5110060;28;1163;-68
2022/10/28 12:55:45;;;;;;;;;;;21.10;99.90;;;;;;5099553;28;1172;-68
2022/10/28 12:58:14;;;;;;;;;;;21.00;99.90;;;;;;5111522;28;1084;-69
2022/10/28 13:00:42;;;;;;;;;;;20.80;99.90;;;;;;5112528;28;1156;-68
2022/10/28 13:03:11;;;;;;;;;;;20.80;99.90;;;;;;5103916;28;1262;-68
2022/10/28 13:05:40;;;;;;;;;;;20.70;99.90;;;;;;5111763;28;962;-68
2022/10/28 13:08:11;;;;;;;;;;;20.70;99.90;;;;;;5111587;28;1905;-69
2022/10/28 13:10:41;;;;;;;;;;;20.60;99.90;;;;;;5111760;28;1205;-68
2022/10/28 13:13:12;;;;;;;;;;;20.60;99.90;;;;;;5100325;28;1457;-68
2022/10/28 13:16:01;;;;;;;;;;;20.50;99.90;;;;;;5111986;28;1198;-68
2022/10/28 13:18:37;;;;;;;;;;;20.50;99.90;;;;;;5111387;28;1112;-68
2022/10/28 13:21:11;;;;;;;;;;;20.40;99.90;;;;;;5100281;28;1085;-68
2022/10/28 13:23:40;;;;;;;;;;;20.30;99.90;;;;;;5085454;28;3085;-68
2022/10/28 13:26:12;;;;;;;;;;;20.30;99.90;;;;;;5109255;28;1930;-68
2022/10/28 13:28:44;;;;;;;;;;;20.30;99.90;;;;;;5110799;28;1064;-69
2022/10/28 13:31:10;;;;;;;;;;;20.20;99.90;;;;;;5096971;28;1176;-69
2022/10/28 13:33:36;;;;;;;;;;;20.10;99.90;;;;;;5110506;28;1175;-68
2022/10/28 13:36:07;;;;;;;;;;;20.10;99.90;;;;;;5091368;28;1338;-68
2022/10/28 13:38:33;;;;;;;;;;;20.20;99.90;;;;;;5105685;28;1163;-68
2022/10/28 13:40:59;;;;;;;;;;;20.30;99.90;;;;;;5092683;28;1604;-68
2022/10/28 13:43:43;;;;;;;;;;;20.40;99.90;;;;;;5111699;28;1100;-69
2022/10/28 13:46:09;;;;;;;;;;;20.50;99.90;;;;;;5110472;28;1909;-68
2022/10/28 13:48:41;;;;;;;;;;;20.70;99.90;;;;;;5110048;28;1110;-68
2022/10/28 13:51:07;;;;;;;;;;;21.00;99.90;;;;;;5111006;28;1370;-68
2022/10/28 13:53:37;;;;;;;;;;;21.20;99.90;;;;;;5111046;28;1214;-68
2022/10/28 13:56:10;;;;;;;;;;;21.40;99.90;;;;;;5091322;28;1124;-68
2022/10/28 13:58:36;;;;;;;;;;;21.50;99.90;;;;;;5110957;28;1274;-68
2022/10/28 14:01:20;;;;;;;;;;;21.60;99.90;;;;;;5110990;28;1314;-68
2022/10/28 14:03:50;;;;;;;;;;;21.50;99.90;;;;;;5108147;28;1204;-68
2022/10/28 14:06:29;;;;;;;;;;;21.40;99.90;;;;;;5108884;28;1918;-68
2022/10/28 14:08:55;;;;;;;;;;;21.00;99.90;;;;;;5110570;28;1084;-68
2022/10/28 14:11:22;;;;;;;;;;;20.60;99.90;;;;;;5110832;28;1092;-68
2022/10/28 14:13:49;;;;;;;;;;;20.30;99.90;;;;;;5109711;28;1291;-68
2022/10/28 14:16:16;;;;;;;;;;;20.20;99.90;;;;;;5097652;28;1302;-68
2022/10/28 14:18:49;;;;;;;;;;;20.00;99.90;;;;;;5110175;28;1235;-68
2022/10/28 14:21:15;;;;;;;;;;;19.80;99.90;;;;;;5110828;28;1191;-68
2022/10/28 14:23:41;;;;;;;;;;;19.70;99.90;;;;;;5109579;28;1191;-68
2022/10/28 14:26:06;;;;;;;;;;;19.60;99.90;;;;;;5110613;28;1929;-68
2022/10/28 14:28:32;;;;;;;;;;;19.50;99.90;;;;;;5110700;28;1310;-68
2022/10/28 14:31:07;;;;;;;;;;;19.50;99.90;;;;;;5109999;28;1104;-68
2022/10/28 14:33:42;;;;;;;;;;;19.40;99.90;;;;;;5092056;28;1194;-68
2022/10/28 14:36:14;;;;;;;;;;;19.40;99.90;;;;;;5110963;28;1266;-68